sensor_id;sensor_type;location;lat;lon;timestamp;P1;durP1;ratioP1;P2;durP2;ratioP2
55455;SDS011;46961;52.836;6.376;2022-08-19T00:01:47;7.70;;;5.60;;
55455;SDS011;46961;52.836;6.376;2022-08-19T00:04:20;5.57;;;4.20;;
55455;SDS011;46961;52.836;6.376;2022-08-19T00:06:54;6.28;;;5.35;;
55455;SDS011;46961;52.836;6.376;2022-08-19T00:09:26;5.20;;;4.70;;
55455;SDS011;46961;52.836;6.376;2022-08-19T00:11:55;4.00;;;3.70;;
55455;SDS011;46961;52.836;6.376;2022-08-19T00:19:59;6.93;;;3.97;;
55455;SDS011;46961;52.836;6.376;2022-08-19T00:22:33;8.48;;;5.20;;
55455;SDS011;46961;52.836;6.376;2022-08-19T00:25:07;12.10;;;4.38;;
55455;SDS011;46961;52.836;6.376;2022-08-19T00:27:35;7.95;;;4.75;;
55455;SDS011;46961;52.836;6.376;2022-08-19T00:30:04;8.82;;;5.00;;
55455;SDS011;46961;52.836;6.376;2022-08-19T00:32:33;6.70;;;5.72;;
55455;SDS011;46961;52.836;6.376;2022-08-19T00:34:59;8.38;;;5.25;;
55455;SDS011;46961;52.836;6.376;2022-08-19T00:37:30;7.15;;;6.45;;
55455;SDS011;46961;52.836;6.376;2022-08-19T00:40:39;7.53;;;6.30;;
55455;SDS011;46961;52.836;6.376;2022-08-19T00:43:18;6.38;;;5.75;;
55455;SDS011;46961;52.836;6.376;2022-08-19T00:45:47;8.05;;;6.45;;
55455;SDS011;46961;52.836;6.376;2022-08-19T00:48:15;11.65;;;6.97;;
55455;SDS011;46961;52.836;6.376;2022-08-19T00:50:55;6.40;;;5.78;;
55455;SDS011;46961;52.836;6.376;2022-08-19T00:53:32;8.30;;;5.75;;
55455;SDS011;46961;52.836;6.376;2022-08-19T00:56:01;6.45;;;5.60;;
55455;SDS011;46961;52.836;6.376;2022-08-19T00:58:34;6.00;;;5.40;;
55455;SDS011;46961;52.836;6.376;2022-08-19T01:01:09;6.13;;;5.38;;
55455;SDS011;46961;52.836;6.376;2022-08-19T01:03:43;6.80;;;5.43;;
55455;SDS011;46961;52.836;6.376;2022-08-19T01:06:13;7.63;;;6.13;;
55455;SDS011;46961;52.836;6.376;2022-08-19T01:08:41;5.88;;;5.38;;
55455;SDS011;46961;52.836;6.376;2022-08-19T01:11:12;8.68;;;6.88;;
55455;SDS011;46961;52.836;6.376;2022-08-19T01:16:20;6.07;;;5.47;;
55455;SDS011;46961;52.836;6.376;2022-08-19T01:18:50;6.65;;;6.00;;
55455;SDS011;46961;52.836;6.376;2022-08-19T01:23:45;7.82;;;5.70;;
55455;SDS011;46961;52.836;6.376;2022-08-19T01:26:17;6.38;;;5.43;;
55455;SDS011;46961;52.836;6.376;2022-08-19T01:28:50;6.28;;;5.78;;
55455;SDS011;46961;52.836;6.376;2022-08-19T01:31:23;8.98;;;6.07;;
55455;SDS011;46961;52.836;6.376;2022-08-19T01:33:51;7.25;;;5.65;;
55455;SDS011;46961;52.836;6.376;2022-08-19T01:36:40;6.75;;;5.97;;
55455;SDS011;46961;52.836;6.376;2022-08-19T01:39:12;5.88;;;5.10;;
55455;SDS011;46961;52.836;6.376;2022-08-19T01:41:43;5.68;;;4.95;;
55455;SDS011;46961;52.836;6.376;2022-08-19T01:44:15;5.00;;;4.45;;
55455;SDS011;46961;52.836;6.376;2022-08-19T01:46:48;5.75;;;5.18;;
55455;SDS011;46961;52.836;6.376;2022-08-19T01:49:19;4.80;;;4.40;;
55455;SDS011;46961;52.836;6.376;2022-08-19T01:51:48;5.70;;;5.20;;
55455;SDS011;46961;52.836;6.376;2022-08-19T01:54:19;4.90;;;4.38;;
55455;SDS011;46961;52.836;6.376;2022-08-19T01:56:49;5.95;;;5.35;;
55455;SDS011;46961;52.836;6.376;2022-08-19T01:59:19;5.35;;;4.60;;
55455;SDS011;46961;52.836;6.376;2022-08-19T02:01:51;6.28;;;4.30;;
55455;SDS011;46961;52.836;6.376;2022-08-19T02:04:17;5.65;;;5.15;;
55455;SDS011;46961;52.836;6.376;2022-08-19T02:06:45;5.03;;;4.40;;
55455;SDS011;46961;52.836;6.376;2022-08-19T02:09:18;7.13;;;4.97;;
55455;SDS011;46961;52.836;6.376;2022-08-19T02:11:47;5.57;;;5.03;;
55455;SDS011;46961;52.836;6.376;2022-08-19T02:14:21;6.90;;;5.45;;
55455;SDS011;46961;52.836;6.376;2022-08-19T02:16:49;9.07;;;4.90;;
55455;SDS011;46961;52.836;6.376;2022-08-19T02:22:44;5.13;;;4.57;;
55455;SDS011;46961;52.836;6.376;2022-08-19T02:25:15;5.40;;;4.90;;
55455;SDS011;46961;52.836;6.376;2022-08-19T02:27:45;5.88;;;5.20;;
55455;SDS011;46961;52.836;6.376;2022-08-19T02:30:17;5.43;;;4.93;;
55455;SDS011;46961;52.836;6.376;2022-08-19T02:32:48;7.13;;;4.88;;
55455;SDS011;46961;52.836;6.376;2022-08-19T02:35:25;6.65;;;6.05;;
55455;SDS011;46961;52.836;6.376;2022-08-19T02:37:56;5.25;;;4.75;;
55455;SDS011;46961;52.836;6.376;2022-08-19T02:40:50;5.90;;;4.88;;
55455;SDS011;46961;52.836;6.376;2022-08-19T02:43:31;4.95;;;4.55;;
55455;SDS011;46961;52.836;6.376;2022-08-19T02:46:11;6.10;;;5.43;;
55455;SDS011;46961;52.836;6.376;2022-08-19T02:48:46;6.78;;;6.10;;
55455;SDS011;46961;52.836;6.376;2022-08-19T02:51:22;7.05;;;5.47;;
55455;SDS011;46961;52.836;6.376;2022-08-19T02:53:55;7.80;;;6.80;;
55455;SDS011;46961;52.836;6.376;2022-08-19T02:56:23;7.72;;;6.65;;
55455;SDS011;46961;52.836;6.376;2022-08-19T02:59:12;8.15;;;7.35;;
55455;SDS011;46961;52.836;6.376;2022-08-19T03:01:45;8.18;;;6.78;;
55455;SDS011;46961;52.836;6.376;2022-08-19T03:04:17;6.20;;;5.60;;
55455;SDS011;46961;52.836;6.376;2022-08-19T03:06:45;7.93;;;6.15;;
55455;SDS011;46961;52.836;6.376;2022-08-19T03:09:18;4.95;;;4.10;;
55455;SDS011;46961;52.836;6.376;2022-08-19T03:11:44;4.00;;;3.70;;
55455;SDS011;46961;52.836;6.376;2022-08-19T03:14:11;2.55;;;1.33;;
55455;SDS011;46961;52.836;6.376;2022-08-19T03:16:42;1.38;;;1.27;;
55455;SDS011;46961;52.836;6.376;2022-08-19T03:19:16;2.35;;;1.83;;
55455;SDS011;46961;52.836;6.376;2022-08-19T03:21:49;1.35;;;1.25;;
55455;SDS011;46961;52.836;6.376;2022-08-19T03:24:18;3.05;;;1.23;;
55455;SDS011;46961;52.836;6.376;2022-08-19T03:26:49;1.48;;;1.38;;
55455;SDS011;46961;52.836;6.376;2022-08-19T03:29:18;3.83;;;1.80;;
55455;SDS011;46961;52.836;6.376;2022-08-19T03:31:47;2.70;;;1.23;;
55455;SDS011;46961;52.836;6.376;2022-08-19T03:34:20;1.52;;;1.42;;
55455;SDS011;46961;52.836;6.376;2022-08-19T03:36:51;1.85;;;1.75;;
55455;SDS011;46961;52.836;6.376;2022-08-19T03:39:22;2.92;;;1.90;;
55455;SDS011;46961;52.836;6.376;2022-08-19T03:41:58;1.90;;;1.80;;
55455;SDS011;46961;52.836;6.376;2022-08-19T03:44:27;2.47;;;2.10;;
55455;SDS011;46961;52.836;6.376;2022-08-19T03:46:58;2.15;;;1.92;;
55455;SDS011;46961;52.836;6.376;2022-08-19T03:49:29;2.53;;;2.33;;
55455;SDS011;46961;52.836;6.376;2022-08-19T03:52:00;3.17;;;2.90;;
55455;SDS011;46961;52.836;6.376;2022-08-19T03:54:34;4.18;;;2.83;;
55455;SDS011;46961;52.836;6.376;2022-08-19T03:57:00;3.42;;;3.10;;
55455;SDS011;46961;52.836;6.376;2022-08-19T03:59:31;5.35;;;3.22;;
55455;SDS011;46961;52.836;6.376;2022-08-19T04:02:09;3.63;;;3.33;;
55455;SDS011;46961;52.836;6.376;2022-08-19T04:04:41;3.97;;;3.53;;
55455;SDS011;46961;52.836;6.376;2022-08-19T04:07:13;4.97;;;4.43;;
55455;SDS011;46961;52.836;6.376;2022-08-19T04:09:47;5.43;;;3.88;;
55455;SDS011;46961;52.836;6.376;2022-08-19T04:12:21;4.70;;;4.10;;
55455;SDS011;46961;52.836;6.376;2022-08-19T04:14:49;5.22;;;3.63;;
55455;SDS011;46961;52.836;6.376;2022-08-19T04:17:18;4.78;;;4.15;;
55455;SDS011;46961;52.836;6.376;2022-08-19T04:19:46;4.68;;;4.22;;
55455;SDS011;46961;52.836;6.376;2022-08-19T04:22:13;5.28;;;4.78;;
55455;SDS011;46961;52.836;6.376;2022-08-19T04:24:47;4.63;;;4.22;;
55455;SDS011;46961;52.836;6.376;2022-08-19T04:27:17;4.45;;;4.05;;
55455;SDS011;46961;52.836;6.376;2022-08-19T04:29:42;6.22;;;3.83;;
55455;SDS011;46961;52.836;6.376;2022-08-19T04:32:13;5.22;;;4.72;;
55455;SDS011;46961;52.836;6.376;2022-08-19T04:34:43;4.72;;;3.72;;
55455;SDS011;46961;52.836;6.376;2022-08-19T04:37:19;4.00;;;3.58;;
55455;SDS011;46961;52.836;6.376;2022-08-19T04:39:52;3.38;;;3.08;;
55455;SDS011;46961;52.836;6.376;2022-08-19T04:42:38;3.95;;;3.55;;
55455;SDS011;46961;52.836;6.376;2022-08-19T04:45:13;5.47;;;3.58;;
55455;SDS011;46961;52.836;6.376;2022-08-19T04:47:42;4.45;;;3.47;;
55455;SDS011;46961;52.836;6.376;2022-08-19T04:50:09;4.60;;;3.70;;
55455;SDS011;46961;52.836;6.376;2022-08-19T04:52:40;3.63;;;3.30;;
55455;SDS011;46961;52.836;6.376;2022-08-19T04:55:20;5.70;;;4.28;;
55455;SDS011;46961;52.836;6.376;2022-08-19T04:57:46;5.88;;;4.05;;
55455;SDS011;46961;52.836;6.376;2022-08-19T05:00:14;5.30;;;4.32;;
55455;SDS011;46961;52.836;6.376;2022-08-19T05:02:41;4.82;;;4.35;;
55455;SDS011;46961;52.836;6.376;2022-08-19T05:05:07;7.78;;;5.47;;
55455;SDS011;46961;52.836;6.376;2022-08-19T05:07:41;6.40;;;5.65;;
55455;SDS011;46961;52.836;6.376;2022-08-19T05:10:07;9.70;;;6.03;;
55455;SDS011;46961;52.836;6.376;2022-08-19T05:12:38;5.13;;;4.63;;
55455;SDS011;46961;52.836;6.376;2022-08-19T05:15:13;5.60;;;3.95;;
55455;SDS011;46961;52.836;6.376;2022-08-19T05:17:44;4.25;;;3.80;;
55455;SDS011;46961;52.836;6.376;2022-08-19T05:20:31;4.95;;;3.00;;
55455;SDS011;46961;52.836;6.376;2022-08-19T05:23:23;3.90;;;3.45;;
55455;SDS011;46961;52.836;6.376;2022-08-19T05:25:55;3.55;;;3.25;;
55455;SDS011;46961;52.836;6.376;2022-08-19T05:28:28;4.88;;;3.22;;
55455;SDS011;46961;52.836;6.376;2022-08-19T05:31:01;4.28;;;3.10;;
55455;SDS011;46961;52.836;6.376;2022-08-19T05:33:43;3.63;;;3.10;;
55455;SDS011;46961;52.836;6.376;2022-08-19T05:36:14;3.45;;;3.17;;
55455;SDS011;46961;52.836;6.376;2022-08-19T05:38:47;3.45;;;2.72;;
55455;SDS011;46961;52.836;6.376;2022-08-19T05:41:18;5.30;;;3.67;;
55455;SDS011;46961;52.836;6.376;2022-08-19T05:43:45;5.57;;;4.15;;
55455;SDS011;46961;52.836;6.376;2022-08-19T05:46:18;12.57;;;9.00;;
55455;SDS011;46961;52.836;6.376;2022-08-19T05:48:46;14.18;;;10.70;;
55455;SDS011;46961;52.836;6.376;2022-08-19T05:51:17;16.23;;;12.43;;
55455;SDS011;46961;52.836;6.376;2022-08-19T05:53:54;16.75;;;13.57;;
55455;SDS011;46961;52.836;6.376;2022-08-19T05:56:20;20.13;;;14.63;;
55455;SDS011;46961;52.836;6.376;2022-08-19T05:58:48;19.05;;;15.10;;
55455;SDS011;46961;52.836;6.376;2022-08-19T06:01:17;20.80;;;14.70;;
55455;SDS011;46961;52.836;6.376;2022-08-19T06:03:44;22.13;;;15.80;;
55455;SDS011;46961;52.836;6.376;2022-08-19T06:06:13;18.90;;;15.32;;
55455;SDS011;46961;52.836;6.376;2022-08-19T06:08:42;21.55;;;16.83;;
55455;SDS011;46961;52.836;6.376;2022-08-19T06:14:04;31.67;;;17.38;;
55455;SDS011;46961;52.836;6.376;2022-08-19T06:16:33;26.73;;;17.38;;
55455;SDS011;46961;52.836;6.376;2022-08-19T06:19:04;23.02;;;16.45;;
55455;SDS011;46961;52.836;6.376;2022-08-19T06:21:33;22.45;;;17.30;;
55455;SDS011;46961;52.836;6.376;2022-08-19T06:24:11;23.85;;;17.08;;
55455;SDS011;46961;52.836;6.376;2022-08-19T06:26:42;24.33;;;18.83;;
55455;SDS011;46961;52.836;6.376;2022-08-19T06:29:10;20.13;;;16.17;;
55455;SDS011;46961;52.836;6.376;2022-08-19T06:31:40;21.52;;;16.35;;
55455;SDS011;46961;52.836;6.376;2022-08-19T06:34:08;23.73;;;15.85;;
55455;SDS011;46961;52.836;6.376;2022-08-19T06:36:41;23.33;;;17.33;;
55455;SDS011;46961;52.836;6.376;2022-08-19T06:39:10;20.80;;;16.00;;
55455;SDS011;46961;52.836;6.376;2022-08-19T06:41:39;18.95;;;14.85;;
55455;SDS011;46961;52.836;6.376;2022-08-19T06:44:12;20.08;;;16.05;;
55455;SDS011;46961;52.836;6.376;2022-08-19T06:46:38;25.30;;;14.73;;
55455;SDS011;46961;52.836;6.376;2022-08-19T06:49:05;22.40;;;15.00;;
55455;SDS011;46961;52.836;6.376;2022-08-19T06:51:41;17.33;;;14.77;;
55455;SDS011;46961;52.836;6.376;2022-08-19T06:54:10;19.80;;;14.50;;
55455;SDS011;46961;52.836;6.376;2022-08-19T06:56:41;19.30;;;14.63;;
55455;SDS011;46961;52.836;6.376;2022-08-19T06:59:16;19.87;;;14.30;;
55455;SDS011;46961;52.836;6.376;2022-08-19T07:01:49;16.75;;;14.48;;
55455;SDS011;46961;52.836;6.376;2022-08-19T07:07:17;15.70;;;14.10;;
55455;SDS011;46961;52.836;6.376;2022-08-19T07:09:49;19.27;;;13.98;;
55455;SDS011;46961;52.836;6.376;2022-08-19T07:12:20;21.17;;;15.43;;
55455;SDS011;46961;52.836;6.376;2022-08-19T07:14:52;17.90;;;14.38;;
55455;SDS011;46961;52.836;6.376;2022-08-19T07:17:25;21.13;;;14.05;;
55455;SDS011;46961;52.836;6.376;2022-08-19T07:19:54;18.33;;;14.38;;
55455;SDS011;46961;52.836;6.376;2022-08-19T07:22:28;17.92;;;14.25;;
55455;SDS011;46961;52.836;6.376;2022-08-19T07:28:21;16.92;;;13.82;;
55455;SDS011;46961;52.836;6.376;2022-08-19T07:30:52;22.10;;;14.75;;
55455;SDS011;46961;52.836;6.376;2022-08-19T07:33:19;18.95;;;15.00;;
55455;SDS011;46961;52.836;6.376;2022-08-19T07:35:48;16.25;;;14.50;;
55455;SDS011;46961;52.836;6.376;2022-08-19T07:38:20;18.50;;;14.48;;
55455;SDS011;46961;52.836;6.376;2022-08-19T07:40:52;18.02;;;14.45;;
55455;SDS011;46961;52.836;6.376;2022-08-19T07:43:23;16.35;;;14.65;;
55455;SDS011;46961;52.836;6.376;2022-08-19T07:45:58;15.77;;;14.07;;
55455;SDS011;46961;52.836;6.376;2022-08-19T07:48:30;21.23;;;15.20;;
55455;SDS011;46961;52.836;6.376;2022-08-19T07:51:05;16.67;;;14.35;;
55455;SDS011;46961;52.836;6.376;2022-08-19T07:53:37;18.38;;;14.65;;
55455;SDS011;46961;52.836;6.376;2022-08-19T07:56:04;16.58;;;14.88;;
55455;SDS011;46961;52.836;6.376;2022-08-19T07:58:35;20.42;;;14.65;;
55455;SDS011;46961;52.836;6.376;2022-08-19T08:01:11;16.55;;;14.60;;
55455;SDS011;46961;52.836;6.376;2022-08-19T08:06:38;16.88;;;14.55;;
55455;SDS011;46961;52.836;6.376;2022-08-19T08:09:27;19.92;;;16.05;;
55455;SDS011;46961;52.836;6.376;2022-08-19T08:12:03;20.60;;;15.82;;
55455;SDS011;46961;52.836;6.376;2022-08-19T08:19:54;21.02;;;16.15;;
55455;SDS011;46961;52.836;6.376;2022-08-19T08:22:27;20.45;;;16.98;;
55455;SDS011;46961;52.836;6.376;2022-08-19T08:25:16;18.83;;;14.88;;
55455;SDS011;46961;52.836;6.376;2022-08-19T08:27:44;19.70;;;17.60;;
55455;SDS011;46961;52.836;6.376;2022-08-19T08:30:16;18.27;;;15.90;;
55455;SDS011;46961;52.836;6.376;2022-08-19T08:32:45;17.85;;;15.02;;
55455;SDS011;46961;52.836;6.376;2022-08-19T08:35:19;15.85;;;13.85;;
55455;SDS011;46961;52.836;6.376;2022-08-19T08:37:48;19.65;;;16.10;;
55455;SDS011;46961;52.836;6.376;2022-08-19T08:40:18;18.98;;;15.90;;
55455;SDS011;46961;52.836;6.376;2022-08-19T08:43:20;19.08;;;15.57;;
55455;SDS011;46961;52.836;6.376;2022-08-19T08:45:55;15.70;;;13.80;;
55455;SDS011;46961;52.836;6.376;2022-08-19T08:51:11;17.05;;;14.82;;
55455;SDS011;46961;52.836;6.376;2022-08-19T08:53:46;16.33;;;14.48;;
55455;SDS011;46961;52.836;6.376;2022-08-19T08:56:17;16.77;;;15.05;;
55455;SDS011;46961;52.836;6.376;2022-08-19T08:58:59;19.65;;;15.00;;
55455;SDS011;46961;52.836;6.376;2022-08-19T09:01:35;17.92;;;14.98;;
55455;SDS011;46961;52.836;6.376;2022-08-19T09:04:08;20.52;;;15.60;;
55455;SDS011;46961;52.836;6.376;2022-08-19T09:09:29;17.00;;;15.25;;
55455;SDS011;46961;52.836;6.376;2022-08-19T09:14:58;16.20;;;14.60;;
55455;SDS011;46961;52.836;6.376;2022-08-19T09:17:30;16.27;;;14.68;;
55455;SDS011;46961;52.836;6.376;2022-08-19T09:22:44;14.57;;;12.52;;
55455;SDS011;46961;52.836;6.376;2022-08-19T09:25:13;16.88;;;13.60;;
55455;SDS011;46961;52.836;6.376;2022-08-19T09:27:48;15.88;;;14.35;;
55455;SDS011;46961;52.836;6.376;2022-08-19T09:30:27;17.30;;;15.52;;
55455;SDS011;46961;52.836;6.376;2022-08-19T09:32:54;17.60;;;14.40;;
55455;SDS011;46961;52.836;6.376;2022-08-19T09:35:22;15.80;;;14.02;;
55455;SDS011;46961;52.836;6.376;2022-08-19T09:37:53;15.68;;;12.13;;
55455;SDS011;46961;52.836;6.376;2022-08-19T09:40:24;13.73;;;12.43;;
55455;SDS011;46961;52.836;6.376;2022-08-19T09:42:57;14.20;;;11.85;;
55455;SDS011;46961;52.836;6.376;2022-08-19T09:45:37;12.00;;;10.80;;
55455;SDS011;46961;52.836;6.376;2022-08-19T09:48:11;13.68;;;11.38;;
55455;SDS011;46961;52.836;6.376;2022-08-19T09:50:39;13.55;;;11.90;;
55455;SDS011;46961;52.836;6.376;2022-08-19T09:53:07;15.43;;;12.60;;
55455;SDS011;46961;52.836;6.376;2022-08-19T09:55:34;16.00;;;12.60;;
55455;SDS011;46961;52.836;6.376;2022-08-19T09:58:03;10.32;;;9.25;;
55455;SDS011;46961;52.836;6.376;2022-08-19T10:00:37;11.88;;;9.88;;
55455;SDS011;46961;52.836;6.376;2022-08-19T10:03:05;12.57;;;9.73;;
55455;SDS011;46961;52.836;6.376;2022-08-19T10:05:34;10.00;;;9.00;;
55455;SDS011;46961;52.836;6.376;2022-08-19T10:08:13;13.65;;;9.73;;
55455;SDS011;46961;52.836;6.376;2022-08-19T10:10:41;11.15;;;9.50;;
55455;SDS011;46961;52.836;6.376;2022-08-19T10:13:11;13.48;;;10.65;;
55455;SDS011;46961;52.836;6.376;2022-08-19T10:15:39;15.55;;;12.18;;
55455;SDS011;46961;52.836;6.376;2022-08-19T10:18:08;15.93;;;11.60;;
55455;SDS011;46961;52.836;6.376;2022-08-19T10:20:37;14.75;;;10.88;;
55455;SDS011;46961;52.836;6.376;2022-08-19T10:23:10;11.90;;;10.67;;
55455;SDS011;46961;52.836;6.376;2022-08-19T10:25:39;12.02;;;10.75;;
55455;SDS011;46961;52.836;6.376;2022-08-19T10:28:07;15.00;;;13.10;;
55455;SDS011;46961;52.836;6.376;2022-08-19T10:30:37;14.20;;;10.98;;
55455;SDS011;46961;52.836;6.376;2022-08-19T10:33:07;12.75;;;10.13;;
55455;SDS011;46961;52.836;6.376;2022-08-19T10:35:35;12.52;;;9.65;;
55455;SDS011;46961;52.836;6.376;2022-08-19T10:38:09;13.88;;;10.73;;
55455;SDS011;46961;52.836;6.376;2022-08-19T10:40:41;13.07;;;11.68;;
55455;SDS011;46961;52.836;6.376;2022-08-19T10:43:15;14.63;;;11.23;;
55455;SDS011;46961;52.836;6.376;2022-08-19T10:45:43;13.63;;;11.68;;
55455;SDS011;46961;52.836;6.376;2022-08-19T10:48:16;12.02;;;10.65;;
55455;SDS011;46961;52.836;6.376;2022-08-19T10:50:45;12.50;;;10.00;;
55455;SDS011;46961;52.836;6.376;2022-08-19T10:53:30;12.05;;;10.07;;
55455;SDS011;46961;52.836;6.376;2022-08-19T10:55:56;11.32;;;10.00;;
55455;SDS011;46961;52.836;6.376;2022-08-19T10:58:43;12.77;;;10.52;;
55455;SDS011;46961;52.836;6.376;2022-08-19T11:01:11;13.68;;;12.13;;
55455;SDS011;46961;52.836;6.376;2022-08-19T11:03:36;17.77;;;14.30;;
55455;SDS011;46961;52.836;6.376;2022-08-19T11:06:09;12.73;;;11.52;;
55455;SDS011;46961;52.836;6.376;2022-08-19T11:08:39;10.82;;;9.73;;
55455;SDS011;46961;52.836;6.376;2022-08-19T11:13:40;11.00;;;9.50;;
55455;SDS011;46961;52.836;6.376;2022-08-19T11:16:10;10.35;;;7.75;;
55455;SDS011;46961;52.836;6.376;2022-08-19T11:18:41;8.75;;;7.75;;
55455;SDS011;46961;52.836;6.376;2022-08-19T11:21:14;11.02;;;8.65;;
55455;SDS011;46961;52.836;6.376;2022-08-19T11:23:48;14.48;;;12.23;;
55455;SDS011;46961;52.836;6.376;2022-08-19T11:26:17;14.43;;;9.93;;
55455;SDS011;46961;52.836;6.376;2022-08-19T11:28:48;14.85;;;10.60;;
55455;SDS011;46961;52.836;6.376;2022-08-19T11:31:18;13.70;;;10.18;;
55455;SDS011;46961;52.836;6.376;2022-08-19T11:33:56;11.68;;;10.05;;
55455;SDS011;46961;52.836;6.376;2022-08-19T11:36:23;11.40;;;10.25;;
55455;SDS011;46961;52.836;6.376;2022-08-19T11:38:54;14.48;;;11.07;;
55455;SDS011;46961;52.836;6.376;2022-08-19T11:41:23;12.00;;;8.23;;
55455;SDS011;46961;52.836;6.376;2022-08-19T11:43:52;10.75;;;8.63;;
55455;SDS011;46961;52.836;6.376;2022-08-19T11:46:24;10.63;;;8.68;;
55455;SDS011;46961;52.836;6.376;2022-08-19T11:48:55;9.52;;;8.40;;
55455;SDS011;46961;52.836;6.376;2022-08-19T11:51:24;11.63;;;8.73;;
55455;SDS011;46961;52.836;6.376;2022-08-19T11:53:55;10.13;;;9.13;;
55455;SDS011;46961;52.836;6.376;2022-08-19T11:56:58;13.77;;;9.48;;
55455;SDS011;46961;52.836;6.376;2022-08-19T11:59:24;11.90;;;10.57;;
55455;SDS011;46961;52.836;6.376;2022-08-19T12:01:57;14.52;;;9.90;;
55455;SDS011;46961;52.836;6.376;2022-08-19T12:04:26;11.52;;;8.70;;
55455;SDS011;46961;52.836;6.376;2022-08-19T12:09:37;10.90;;;8.55;;
55455;SDS011;46961;52.836;6.376;2022-08-19T12:12:04;8.93;;;7.70;;
55455;SDS011;46961;52.836;6.376;2022-08-19T12:14:33;10.65;;;8.70;;
55455;SDS011;46961;52.836;6.376;2022-08-19T12:16:59;10.13;;;9.13;;
55455;SDS011;46961;52.836;6.376;2022-08-19T12:19:29;10.27;;;7.55;;
55455;SDS011;46961;52.836;6.376;2022-08-19T12:22:05;12.10;;;7.47;;
55455;SDS011;46961;52.836;6.376;2022-08-19T12:24:39;9.65;;;7.97;;
55455;SDS011;46961;52.836;6.376;2022-08-19T12:27:08;10.75;;;6.80;;
55455;SDS011;46961;52.836;6.376;2022-08-19T12:29:39;6.90;;;6.07;;
55455;SDS011;46961;52.836;6.376;2022-08-19T12:32:09;9.48;;;6.90;;
55455;SDS011;46961;52.836;6.376;2022-08-19T12:34:37;10.15;;;7.82;;
55455;SDS011;46961;52.836;6.376;2022-08-19T12:37:08;13.65;;;8.10;;
55455;SDS011;46961;52.836;6.376;2022-08-19T12:39:39;10.15;;;7.95;;
55455;SDS011;46961;52.836;6.376;2022-08-19T12:44:39;13.25;;;10.80;;
55455;SDS011;46961;52.836;6.376;2022-08-19T12:47:09;15.52;;;12.60;;
55455;SDS011;46961;52.836;6.376;2022-08-19T12:49:51;15.45;;;11.05;;
55455;SDS011;46961;52.836;6.376;2022-08-19T12:52:18;17.55;;;12.10;;
55455;SDS011;46961;52.836;6.376;2022-08-19T12:58:11;13.48;;;10.90;;
55455;SDS011;46961;52.836;6.376;2022-08-19T13:00:43;10.77;;;9.68;;
55455;SDS011;46961;52.836;6.376;2022-08-19T13:03:11;13.52;;;9.45;;
55455;SDS011;46961;52.836;6.376;2022-08-19T13:05:50;12.20;;;9.80;;
55455;SDS011;46961;52.836;6.376;2022-08-19T13:08:23;12.52;;;11.10;;
55455;SDS011;46961;52.836;6.376;2022-08-19T13:10:51;12.32;;;9.93;;
55455;SDS011;46961;52.836;6.376;2022-08-19T13:13:17;13.77;;;10.60;;
55455;SDS011;46961;52.836;6.376;2022-08-19T13:15:47;9.82;;;8.82;;
55455;SDS011;46961;52.836;6.376;2022-08-19T13:18:16;14.15;;;9.68;;
55455;SDS011;46961;52.836;6.376;2022-08-19T13:20:44;11.00;;;9.63;;
55455;SDS011;46961;52.836;6.376;2022-08-19T13:23:13;14.07;;;11.63;;
55455;SDS011;46961;52.836;6.376;2022-08-19T13:25:44;12.18;;;10.15;;
55455;SDS011;46961;52.836;6.376;2022-08-19T13:28:24;16.13;;;12.38;;
55455;SDS011;46961;52.836;6.376;2022-08-19T13:31:14;14.95;;;11.32;;
55455;SDS011;46961;52.836;6.376;2022-08-19T13:34:03;17.27;;;12.35;;
55455;SDS011;46961;52.836;6.376;2022-08-19T13:36:34;15.38;;;12.95;;
55455;SDS011;46961;52.836;6.376;2022-08-19T13:39:06;16.17;;;12.52;;
55455;SDS011;46961;52.836;6.376;2022-08-19T13:41:37;19.70;;;14.02;;
55455;SDS011;46961;52.836;6.376;2022-08-19T13:44:15;14.60;;;11.35;;
55455;SDS011;46961;52.836;6.376;2022-08-19T13:46:59;24.40;;;16.08;;
55455;SDS011;46961;52.836;6.376;2022-08-19T13:49:33;19.42;;;15.38;;
55455;SDS011;46961;52.836;6.376;2022-08-19T13:52:04;24.08;;;16.02;;
55455;SDS011;46961;52.836;6.376;2022-08-19T13:54:38;16.95;;;13.43;;
55455;SDS011;46961;52.836;6.376;2022-08-19T13:57:11;15.52;;;13.27;;
55455;SDS011;46961;52.836;6.376;2022-08-19T13:59:41;22.67;;;15.63;;
55455;SDS011;46961;52.836;6.376;2022-08-19T14:02:12;24.70;;;15.38;;
55455;SDS011;46961;52.836;6.376;2022-08-19T14:04:42;19.58;;;13.95;;
55455;SDS011;46961;52.836;6.376;2022-08-19T14:07:07;21.05;;;14.90;;
55455;SDS011;46961;52.836;6.376;2022-08-19T14:09:35;16.08;;;13.15;;
55455;SDS011;46961;52.836;6.376;2022-08-19T14:12:03;20.15;;;16.52;;
55455;SDS011;46961;52.836;6.376;2022-08-19T14:14:39;18.73;;;13.10;;
55455;SDS011;46961;52.836;6.376;2022-08-19T14:17:12;24.20;;;19.10;;
55455;SDS011;46961;52.836;6.376;2022-08-19T14:19:39;23.23;;;17.05;;
55455;SDS011;46961;52.836;6.376;2022-08-19T14:22:08;21.80;;;18.25;;
55455;SDS011;46961;52.836;6.376;2022-08-19T14:24:36;23.33;;;17.23;;
55455;SDS011;46961;52.836;6.376;2022-08-19T14:27:07;23.90;;;14.75;;
55455;SDS011;46961;52.836;6.376;2022-08-19T14:29:39;21.38;;;17.50;;
55455;SDS011;46961;52.836;6.376;2022-08-19T14:32:07;21.88;;;15.82;;
55455;SDS011;46961;52.836;6.376;2022-08-19T14:34:34;22.48;;;17.08;;
55455;SDS011;46961;52.836;6.376;2022-08-19T14:40:03;21.05;;;16.70;;
55455;SDS011;46961;52.836;6.376;2022-08-19T14:42:33;21.48;;;16.90;;
55455;SDS011;46961;52.836;6.376;2022-08-19T14:45:03;20.33;;;16.13;;
55455;SDS011;46961;52.836;6.376;2022-08-19T14:47:33;23.20;;;15.73;;
55455;SDS011;46961;52.836;6.376;2022-08-19T14:50:06;24.20;;;16.75;;
55455;SDS011;46961;52.836;6.376;2022-08-19T14:52:37;21.10;;;15.90;;
55455;SDS011;46961;52.836;6.376;2022-08-19T14:55:08;24.15;;;17.35;;
55455;SDS011;46961;52.836;6.376;2022-08-19T15:00:15;17.27;;;14.77;;
55455;SDS011;46961;52.836;6.376;2022-08-19T15:02:48;18.98;;;14.55;;
55455;SDS011;46961;52.836;6.376;2022-08-19T15:05:17;19.98;;;14.82;;
55455;SDS011;46961;52.836;6.376;2022-08-19T15:07:46;17.52;;;14.38;;
55455;SDS011;46961;52.836;6.376;2022-08-19T15:10:15;19.83;;;12.45;;
55455;SDS011;46961;52.836;6.376;2022-08-19T15:12:44;17.67;;;14.02;;
55455;SDS011;46961;52.836;6.376;2022-08-19T15:15:16;18.80;;;13.88;;
55455;SDS011;46961;52.836;6.376;2022-08-19T15:17:43;16.02;;;12.25;;
55455;SDS011;46961;52.836;6.376;2022-08-19T15:20:13;15.32;;;10.07;;
55455;SDS011;46961;52.836;6.376;2022-08-19T15:22:46;12.88;;;11.60;;
55455;SDS011;46961;52.836;6.376;2022-08-19T15:25:24;15.77;;;12.13;;
55455;SDS011;46961;52.836;6.376;2022-08-19T15:27:54;12.98;;;11.60;;
55455;SDS011;46961;52.836;6.376;2022-08-19T15:30:27;15.45;;;12.82;;
55455;SDS011;46961;52.836;6.376;2022-08-19T15:32:56;21.65;;;13.75;;
55455;SDS011;46961;52.836;6.376;2022-08-19T15:35:26;17.48;;;13.50;;
55455;SDS011;46961;52.836;6.376;2022-08-19T15:38:01;16.98;;;13.07;;
55455;SDS011;46961;52.836;6.376;2022-08-19T15:40:28;18.58;;;13.02;;
55455;SDS011;46961;52.836;6.376;2022-08-19T15:42:57;17.73;;;13.95;;
55455;SDS011;46961;52.836;6.376;2022-08-19T15:45:23;19.83;;;14.05;;
55455;SDS011;46961;52.836;6.376;2022-08-19T15:47:56;17.70;;;14.30;;
55455;SDS011;46961;52.836;6.376;2022-08-19T15:50:27;18.27;;;11.88;;
55455;SDS011;46961;52.836;6.376;2022-08-19T15:53:00;17.80;;;11.68;;
55455;SDS011;46961;52.836;6.376;2022-08-19T15:55:32;15.30;;;12.10;;
55455;SDS011;46961;52.836;6.376;2022-08-19T16:01:23;16.48;;;11.13;;
55455;SDS011;46961;52.836;6.376;2022-08-19T16:03:56;14.45;;;11.55;;